sensor_id;sensor_type;location;lat;lon;timestamp;temperature;humidity
15937;DHT22;9163;48.818;8.976;2024-02-15T00:01:21;9.70;99.90
15937;DHT22;9163;48.818;8.976;2024-02-15T00:03:49;9.70;99.90
15937;DHT22;9163;48.818;8.976;2024-02-15T00:06:16;9.70;99.90
15937;DHT22;9163;48.818;8.976;2024-02-15T00:08:43;9.70;99.90
15937;DHT22;9163;48.818;8.976;2024-02-15T00:11:11;9.70;99.90
15937;DHT22;9163;48.818;8.976;2024-02-15T00:13:39;9.60;99.90
15937;DHT22;9163;48.818;8.976;2024-02-15T00:16:07;9.60;99.90
15937;DHT22;9163;48.818;8.976;2024-02-15T00:18:35;9.60;99.90
15937;DHT22;9163;48.818;8.976;2024-02-15T00:21:02;9.60;99.90
15937;DHT22;9163;48.818;8.976;2024-02-15T00:23:30;9.60;99.90
15937;DHT22;9163;48.818;8.976;2024-02-15T00:25:59;9.60;99.90
15937;DHT22;9163;48.818;8.976;2024-02-15T00:28:26;9.70;99.90
15937;DHT22;9163;48.818;8.976;2024-02-15T00:30:53;9.60;99.90
15937;DHT22;9163;48.818;8.976;2024-02-15T00:33:21;9.60;99.90
15937;DHT22;9163;48.818;8.976;2024-02-15T00:35:49;9.60;99.90
15937;DHT22;9163;48.818;8.976;2024-02-15T00:38:17;9.60;99.90
15937;DHT22;9163;48.818;8.976;2024-02-15T00:40:46;9.60;99.90
15937;DHT22;9163;48.818;8.976;2024-02-15T00:43:13;9.50;99.90
15937;DHT22;9163;48.818;8.976;2024-02-15T00:45:40;9.50;99.90
15937;DHT22;9163;48.818;8.976;2024-02-15T00:48:07;9.40;99.90
15937;DHT22;9163;48.818;8.976;2024-02-15T00:50:35;9.40;99.90
15937;DHT22;9163;48.818;8.976;2024-02-15T00:53:05;9.40;99.90
15937;DHT22;9163;48.818;8.976;2024-02-15T00:55:32;9.40;99.90
15937;DHT22;9163;48.818;8.976;2024-02-15T00:57:59;9.30;99.90
15937;DHT22;9163;48.818;8.976;2024-02-15T01:00:26;9.30;99.90
15937;DHT22;9163;48.818;8.976;2024-02-15T01:02:55;9.40;99.90
15937;DHT22;9163;48.818;8.976;2024-02-15T01:05:22;9.40;99.90
15937;DHT22;9163;48.818;8.976;2024-02-15T01:07:50;9.30;99.90
15937;DHT22;9163;48.818;8.976;2024-02-15T01:10:19;9.30;99.90
15937;DHT22;9163;48.818;8.976;2024-02-15T01:12:46;9.20;99.90
15937;DHT22;9163;48.818;8.976;2024-02-15T01:15:14;9.20;99.90
15937;DHT22;9163;48.818;8.976;2024-02-15T01:17:44;9.20;99.90
15937;DHT22;9163;48.818;8.976;2024-02-15T01:20:11;9.10;99.90
15937;DHT22;9163;48.818;8.976;2024-02-15T01:22:39;9.00;99.90
15937;DHT22;9163;48.818;8.976;2024-02-15T01:25:06;9.00;99.90
15937;DHT22;9163;48.818;8.976;2024-02-15T01:27:36;9.00;99.90
15937;DHT22;9163;48.818;8.976;2024-02-15T01:30:04;9.00;99.90
15937;DHT22;9163;48.818;8.976;2024-02-15T01:32:31;8.90;99.90
15937;DHT22;9163;48.818;8.976;2024-02-15T01:34:58;8.90;99.90
15937;DHT22;9163;48.818;8.976;2024-02-15T01:37:26;9.00;99.90
15937;DHT22;9163;48.818;8.976;2024-02-15T01:39:53;9.00;99.90
15937;DHT22;9163;48.818;8.976;2024-02-15T01:42:20;8.90;99.90
15937;DHT22;9163;48.818;8.976;2024-02-15T01:44:49;8.90;99.90
15937;DHT22;9163;48.818;8.976;2024-02-15T01:47:17;8.90;99.90
15937;DHT22;9163;48.818;8.976;2024-02-15T01:49:46;8.80;99.90
15937;DHT22;9163;48.818;8.976;2024-02-15T01:52:15;8.70;99.90
15937;DHT22;9163;48.818;8.976;2024-02-15T01:54:44;8.70;99.90
15937;DHT22;9163;48.818;8.976;2024-02-15T01:57:12;8.60;99.90
15937;DHT22;9163;48.818;8.976;2024-02-15T01:59:40;8.50;99.90
15937;DHT22;9163;48.818;8.976;2024-02-15T02:02:11;8.50;99.90
15937;DHT22;9163;48.818;8.976;2024-02-15T02:04:40;8.30;99.90
15937;DHT22;9163;48.818;8.976;2024-02-15T02:07:08;8.30;99.90
15937;DHT22;9163;48.818;8.976;2024-02-15T02:09:35;8.30;99.90
15937;DHT22;9163;48.818;8.976;2024-02-15T02:12:03;8.30;99.90
15937;DHT22;9163;48.818;8.976;2024-02-15T02:14:31;8.30;99.90
15937;DHT22;9163;48.818;8.976;2024-02-15T02:17:12;8.30;99.90
15937;DHT22;9163;48.818;8.976;2024-02-15T02:19:40;8.30;99.90
15937;DHT22;9163;48.818;8.976;2024-02-15T02:22:09;8.30;99.90
15937;DHT22;9163;48.818;8.976;2024-02-15T02:24:44;8.30;99.90
15937;DHT22;9163;48.818;8.976;2024-02-15T02:27:15;8.20;99.90
15937;DHT22;9163;48.818;8.976;2024-02-15T02:29:44;8.20;99.90
15937;DHT22;9163;48.818;8.976;2024-02-15T02:32:12;8.10;99.90
15937;DHT22;9163;48.818;8.976;2024-02-15T02:34:39;8.10;99.90
15937;DHT22;9163;48.818;8.976;2024-02-15T02:37:07;8.10;99.90
15937;DHT22;9163;48.818;8.976;2024-02-15T02:39:34;8.10;99.90
15937;DHT22;9163;48.818;8.976;2024-02-15T02:42:02;8.10;99.90
15937;DHT22;9163;48.818;8.976;2024-02-15T02:44:31;8.00;99.90
15937;DHT22;9163;48.818;8.976;2024-02-15T02:46:58;8.00;99.90
15937;DHT22;9163;48.818;8.976;2024-02-15T02:49:25;8.00;99.90
15937;DHT22;9163;48.818;8.976;2024-02-15T02:51:52;7.90;99.90
15937;DHT22;9163;48.818;8.976;2024-02-15T02:54:20;7.90;99.90
15937;DHT22;9163;48.818;8.976;2024-02-15T02:56:47;7.90;99.90
15937;DHT22;9163;48.818;8.976;2024-02-15T02:59:14;7.80;99.90
15937;DHT22;9163;48.818;8.976;2024-02-15T03:01:43;7.70;99.90
15937;DHT22;9163;48.818;8.976;2024-02-15T03:04:11;7.70;99.90
15937;DHT22;9163;48.818;8.976;2024-02-15T03:06:38;7.60;99.90
15937;DHT22;9163;48.818;8.976;2024-02-15T03:09:08;7.60;99.90
15937;DHT22;9163;48.818;8.976;2024-02-15T03:11:36;7.60;99.90
15937;DHT22;9163;48.818;8.976;2024-02-15T03:14:03;7.70;99.90
15937;DHT22;9163;48.818;8.976;2024-02-15T03:16:31;7.80;99.90
15937;DHT22;9163;48.818;8.976;2024-02-15T03:19:00;7.70;99.90
15937;DHT22;9163;48.818;8.976;2024-02-15T03:21:28;7.70;99.90
15937;DHT22;9163;48.818;8.976;2024-02-15T03:23:56;7.70;99.90
15937;DHT22;9163;48.818;8.976;2024-02-15T03:26:29;7.80;99.90
15937;DHT22;9163;48.818;8.976;2024-02-15T03:29:04;7.80;99.90
15937;DHT22;9163;48.818;8.976;2024-02-15T03:31:32;7.90;99.90
15937;DHT22;9163;48.818;8.976;2024-02-15T03:34:02;7.80;99.90
15937;DHT22;9163;48.818;8.976;2024-02-15T03:36:29;7.80;99.90
15937;DHT22;9163;48.818;8.976;2024-02-15T03:38:56;7.90;99.90
15937;DHT22;9163;48.818;8.976;2024-02-15T03:41:27;7.90;99.90
15937;DHT22;9163;48.818;8.976;2024-02-15T03:43:56;7.90;99.90
15937;DHT22;9163;48.818;8.976;2024-02-15T03:46:25;7.90;99.90
15937;DHT22;9163;48.818;8.976;2024-02-15T03:48:53;7.90;99.90
15937;DHT22;9163;48.818;8.976;2024-02-15T03:51:24;7.90;99.90
15937;DHT22;9163;48.818;8.976;2024-02-15T03:53:51;7.80;99.90
15937;DHT22;9163;48.818;8.976;2024-02-15T03:56:19;7.80;99.90
15937;DHT22;9163;48.818;8.976;2024-02-15T03:58:47;7.80;99.90
15937;DHT22;9163;48.818;8.976;2024-02-15T04:01:16;7.90;99.90
15937;DHT22;9163;48.818;8.976;2024-02-15T04:03:43;7.80;99.90
15937;DHT22;9163;48.818;8.976;2024-02-15T04:06:11;7.90;99.90
15937;DHT22;9163;48.818;8.976;2024-02-15T04:08:39;7.90;99.90
15937;DHT22;9163;48.818;8.976;2024-02-15T04:11:06;7.90;99.90
15937;DHT22;9163;48.818;8.976;2024-02-15T04:13:34;7.90;99.90
15937;DHT22;9163;48.818;8.976;2024-02-15T04:16:01;7.90;99.90
15937;DHT22;9163;48.818;8.976;2024-02-15T04:18:30;7.90;99.90
15937;DHT22;9163;48.818;8.976;2024-02-15T04:20:58;7.80;99.90
15937;DHT22;9163;48.818;8.976;2024-02-15T04:23:25;7.70;99.90
15937;DHT22;9163;48.818;8.976;2024-02-15T04:25:54;7.70;99.90
15937;DHT22;9163;48.818;8.976;2024-02-15T04:28:22;7.80;99.90
15937;DHT22;9163;48.818;8.976;2024-02-15T04:30:49;7.80;99.90
15937;DHT22;9163;48.818;8.976;2024-02-15T04:33:16;7.80;99.90
15937;DHT22;9163;48.818;8.976;2024-02-15T04:35:43;7.80;99.90
15937;DHT22;9163;48.818;8.976;2024-02-15T04:38:11;7.80;99.90
15937;DHT22;9163;48.818;8.976;2024-02-15T04:40:38;7.70;99.90
15937;DHT22;9163;48.818;8.976;2024-02-15T04:43:06;7.70;99.90
15937;DHT22;9163;48.818;8.976;2024-02-15T04:45:34;7.80;99.90
15937;DHT22;9163;48.818;8.976;2024-02-15T04:48:02;7.80;99.90
15937;DHT22;9163;48.818;8.976;2024-02-15T04:50:29;7.80;99.90
15937;DHT22;9163;48.818;8.976;2024-02-15T04:52:57;7.80;99.90
15937;DHT22;9163;48.818;8.976;2024-02-15T04:55:24;7.80;99.90
15937;DHT22;9163;48.818;8.976;2024-02-15T04:57:52;7.80;99.90
15937;DHT22;9163;48.818;8.976;2024-02-15T05:00:23;7.80;99.90
15937;DHT22;9163;48.818;8.976;2024-02-15T05:02:51;7.90;99.90
15937;DHT22;9163;48.818;8.976;2024-02-15T05:05:19;7.90;99.90
15937;DHT22;9163;48.818;8.976;2024-02-15T05:07:47;7.90;99.90
15937;DHT22;9163;48.818;8.976;2024-02-15T05:10:16;7.90;99.90
15937;DHT22;9163;48.818;8.976;2024-02-15T05:12:43;8.00;99.90
15937;DHT22;9163;48.818;8.976;2024-02-15T05:15:15;8.00;99.90
15937;DHT22;9163;48.818;8.976;2024-02-15T05:17:44;7.90;99.90
15937;DHT22;9163;48.818;8.976;2024-02-15T05:20:12;8.00;99.90
15937;DHT22;9163;48.818;8.976;2024-02-15T05:22:40;7.90;99.90
15937;DHT22;9163;48.818;8.976;2024-02-15T05:25:09;7.90;99.90
15937;DHT22;9163;48.818;8.976;2024-02-15T05:27:38;7.90;99.90
15937;DHT22;9163;48.818;8.976;2024-02-15T05:30:06;7.90;99.90
15937;DHT22;9163;48.818;8.976;2024-02-15T05:32:34;7.90;99.90
15937;DHT22;9163;48.818;8.976;2024-02-15T05:35:09;7.90;99.90
15937;DHT22;9163;48.818;8.976;2024-02-15T05:37:37;7.90;99.90
15937;DHT22;9163;48.818;8.976;2024-02-15T05:40:05;7.90;99.90
15937;DHT22;9163;48.818;8.976;2024-02-15T05:42:33;7.90;99.90
15937;DHT22;9163;48.818;8.976;2024-02-15T05:45:27;7.90;99.90
15937;DHT22;9163;48.818;8.976;2024-02-15T05:47:58;7.90;99.90
15937;DHT22;9163;48.818;8.976;2024-02-15T05:50:27;7.90;99.90
15937;DHT22;9163;48.818;8.976;2024-02-15T05:52:56;7.90;99.90
15937;DHT22;9163;48.818;8.976;2024-02-15T05:55:24;7.90;99.90
15937;DHT22;9163;48.818;8.976;2024-02-15T05:57:52;7.90;99.90
15937;DHT22;9163;48.818;8.976;2024-02-15T06:00:21;7.90;99.90
15937;DHT22;9163;48.818;8.976;2024-02-15T06:02:48;7.90;99.90
15937;DHT22;9163;48.818;8.976;2024-02-15T06:05:16;7.90;99.90
15937;DHT22;9163;48.818;8.976;2024-02-15T06:07:45;8.00;99.90
15937;DHT22;9163;48.818;8.976;2024-02-15T06:10:13;8.00;99.90
15937;DHT22;9163;48.818;8.976;2024-02-15T06:12:41;8.00;99.90
15937;DHT22;9163;48.818;8.976;2024-02-15T06:15:09;8.00;99.90
15937;DHT22;9163;48.818;8.976;2024-02-15T06:17:41;8.00;99.90
15937;DHT22;9163;48.818;8.976;2024-02-15T06:20:12;8.00;99.90
15937;DHT22;9163;48.818;8.976;2024-02-15T06:22:41;8.00;99.90
15937;DHT22;9163;48.818;8.976;2024-02-15T06:25:10;7.90;99.90
15937;DHT22;9163;48.818;8.976;2024-02-15T06:27:37;7.90;99.90
15937;DHT22;9163;48.818;8.976;2024-02-15T06:30:08;7.90;99.90
15937;DHT22;9163;48.818;8.976;2024-02-15T06:32:52;7.90;99.90
15937;DHT22;9163;48.818;8.976;2024-02-15T06:35:37;7.90;99.90
15937;DHT22;9163;48.818;8.976;2024-02-15T06:38:23;7.90;99.90
15937;DHT22;9163;48.818;8.976;2024-02-15T06:41:09;7.90;99.90
15937;DHT22;9163;48.818;8.976;2024-02-15T06:43:37;7.90;99.90
15937;DHT22;9163;48.818;8.976;2024-02-15T06:46:06;7.90;99.90
15937;DHT22;9163;48.818;8.976;2024-02-15T06:48:33;7.80;99.90
15937;DHT22;9163;48.818;8.976;2024-02-15T06:51:01;7.90;99.90
15937;DHT22;9163;48.818;8.976;2024-02-15T06:53:29;7.90;99.90
15937;DHT22;9163;48.818;8.976;2024-02-15T06:55:56;7.90;99.90
15937;DHT22;9163;48.818;8.976;2024-02-15T06:58:25;7.90;99.90
15937;DHT22;9163;48.818;8.976;2024-02-15T07:00:53;8.00;99.90
15937;DHT22;9163;48.818;8.976;2024-02-15T07:03:20;7.90;99.90
15937;DHT22;9163;48.818;8.976;2024-02-15T07:05:49;8.00;99.90
15937;DHT22;9163;48.818;8.976;2024-02-15T07:08:17;8.10;99.90
15937;DHT22;9163;48.818;8.976;2024-02-15T07:10:44;8.10;99.90
15937;DHT22;9163;48.818;8.976;2024-02-15T07:13:12;8.10;99.90
15937;DHT22;9163;48.818;8.976;2024-02-15T07:15:40;8.10;99.90
15937;DHT22;9163;48.818;8.976;2024-02-15T07:18:08;8.30;99.90
15937;DHT22;9163;48.818;8.976;2024-02-15T07:20:36;8.50;99.90
15937;DHT22;9163;48.818;8.976;2024-02-15T07:23:05;8.70;99.90
15937;DHT22;9163;48.818;8.976;2024-02-15T07:25:32;8.80;99.90
15937;DHT22;9163;48.818;8.976;2024-02-15T07:27:59;9.10;99.90
15937;DHT22;9163;48.818;8.976;2024-02-15T07:30:27;9.20;99.90
15937;DHT22;9163;48.818;8.976;2024-02-15T07:32:55;9.20;99.90
15937;DHT22;9163;48.818;8.976;2024-02-15T07:35:22;9.40;99.90
15937;DHT22;9163;48.818;8.976;2024-02-15T07:37:52;9.60;99.90
15937;DHT22;9163;48.818;8.976;2024-02-15T07:40:21;9.90;99.90
15937;DHT22;9163;48.818;8.976;2024-02-15T07:42:48;10.10;99.90
15937;DHT22;9163;48.818;8.976;2024-02-15T07:45:18;10.30;99.90
15937;DHT22;9163;48.818;8.976;2024-02-15T07:47:45;10.50;99.90
15937;DHT22;9163;48.818;8.976;2024-02-15T07:50:16;10.10;99.90
15937;DHT22;9163;48.818;8.976;2024-02-15T07:52:46;10.20;99.90
15937;DHT22;9163;48.818;8.976;2024-02-15T07:55:13;10.40;99.90
15937;DHT22;9163;48.818;8.976;2024-02-15T07:57:41;10.50;99.90
15937;DHT22;9163;48.818;8.976;2024-02-15T08:00:09;10.60;99.90
15937;DHT22;9163;48.818;8.976;2024-02-15T08:02:37;10.80;99.90
15937;DHT22;9163;48.818;8.976;2024-02-15T08:05:07;10.80;99.90
15937;DHT22;9163;48.818;8.976;2024-02-15T08:07:40;10.80;99.90
15937;DHT22;9163;48.818;8.976;2024-02-15T08:10:08;10.70;99.90
15937;DHT22;9163;48.818;8.976;2024-02-15T08:12:40;10.70;99.90
15937;DHT22;9163;48.818;8.976;2024-02-15T08:15:08;10.60;99.90
15937;DHT22;9163;48.818;8.976;2024-02-15T08:17:38;10.60;99.90
15937;DHT22;9163;48.818;8.976;2024-02-15T08:20:07;10.50;99.90
15937;DHT22;9163;48.818;8.976;2024-02-15T08:22:35;10.40;99.90
15937;DHT22;9163;48.818;8.976;2024-02-15T08:25:08;10.50;99.90
15937;DHT22;9163;48.818;8.976;2024-02-15T08:27:37;10.60;99.90
15937;DHT22;9163;48.818;8.976;2024-02-15T08:30:09;10.70;99.90
15937;DHT22;9163;48.818;8.976;2024-02-15T08:32:38;10.70;99.90
15937;DHT22;9163;48.818;8.976;2024-02-15T08:35:06;10.50;99.90
15937;DHT22;9163;48.818;8.976;2024-02-15T08:37:34;10.60;99.90
15937;DHT22;9163;48.818;8.976;2024-02-15T08:40:02;10.50;99.90
15937;DHT22;9163;48.818;8.976;2024-02-15T08:42:32;10.60;99.90
15937;DHT22;9163;48.818;8.976;2024-02-15T08:44:59;10.30;99.90
15937;DHT22;9163;48.818;8.976;2024-02-15T08:47:26;10.40;99.90
15937;DHT22;9163;48.818;8.976;2024-02-15T08:49:54;10.50;99.90
15937;DHT22;9163;48.818;8.976;2024-02-15T08:52:21;10.50;99.90
15937;DHT22;9163;48.818;8.976;2024-02-15T08:54:48;10.60;99.90
15937;DHT22;9163;48.818;8.976;2024-02-15T08:57:15;10.80;93.80
15937;DHT22;9163;48.818;8.976;2024-02-15T08:59:46;10.90;70.10
15937;DHT22;9163;48.818;8.976;2024-02-15T09:02:13;11.00;55.30
15937;DHT22;9163;48.818;8.976;2024-02-15T09:04:41;11.20;38.50
15937;DHT22;9163;48.818;8.976;2024-02-15T09:07:09;11.30;24.30
15937;DHT22;9163;48.818;8.976;2024-02-15T09:09:36;11.70;11.80
15937;DHT22;9163;48.818;8.976;2024-02-15T09:12:04;12.20;1.00
15937;DHT22;9163;48.818;8.976;2024-02-15T09:14:32;12.70;1.00
15937;DHT22;9163;48.818;8.976;2024-02-15T09:17:01;13.30;1.00
15937;DHT22;9163;48.818;8.976;2024-02-15T09:19:33;13.90;1.00
15937;DHT22;9163;48.818;8.976;2024-02-15T09:22:00;14.00;1.00
15937;DHT22;9163;48.818;8.976;2024-02-15T09:24:30;14.60;1.00
15937;DHT22;9163;48.818;8.976;2024-02-15T09:26:59;14.50;1.00
15937;DHT22;9163;48.818;8.976;2024-02-15T09:29:27;14.90;1.00
15937;DHT22;9163;48.818;8.976;2024-02-15T09:31:56;15.30;1.00
15937;DHT22;9163;48.818;8.976;2024-02-15T09:34:24;15.20;1.00
15937;DHT22;9163;48.818;8.976;2024-02-15T09:36:52;15.40;1.00
15937;DHT22;9163;48.818;8.976;2024-02-15T09:39:19;15.90;1.00
15937;DHT22;9163;48.818;8.976;2024-02-15T09:41:46;16.40;1.00
15937;DHT22;9163;48.818;8.976;2024-02-15T09:44:19;16.60;1.00
15937;DHT22;9163;48.818;8.976;2024-02-15T09:46:50;16.40;1.00
15937;DHT22;9163;48.818;8.976;2024-02-15T09:49:22;16.50;1.00
15937;DHT22;9163;48.818;8.976;2024-02-15T09:51:51;16.80;1.00
15937;DHT22;9163;48.818;8.976;2024-02-15T09:54:19;17.70;1.00
15937;DHT22;9163;48.818;8.976;2024-02-15T09:56:49;17.50;99.90
15937;DHT22;9163;48.818;8.976;2024-02-15T09:59:17;17.70;99.90
15937;DHT22;9163;48.818;8.976;2024-02-15T10:01:47;18.10;99.90
15937;DHT22;9163;48.818;8.976;2024-02-15T10:04:15;18.40;99.90
15937;DHT22;9163;48.818;8.976;2024-02-15T10:06:43;18.10;99.90
15937;DHT22;9163;48.818;8.976;2024-02-15T10:09:27;17.40;99.90
15937;DHT22;9163;48.818;8.976;2024-02-15T10:11:56;19.00;99.90
15937;DHT22;9163;48.818;8.976;2024-02-15T10:14:24;19.90;99.90
15937;DHT22;9163;48.818;8.976;2024-02-15T10:16:52;20.80;99.90
15937;DHT22;9163;48.818;8.976;2024-02-15T10:19:20;21.50;99.90
15937;DHT22;9163;48.818;8.976;2024-02-15T10:21:53;21.80;13.10
15937;DHT22;9163;48.818;8.976;2024-02-15T10:24:22;20.90;1.00
15937;DHT22;9163;48.818;8.976;2024-02-15T10:26:51;21.60;1.00
15937;DHT22;9163;48.818;8.976;2024-02-15T10:29:19;23.00;1.00
15937;DHT22;9163;48.818;8.976;2024-02-15T10:31:54;24.10;1.00
15937;DHT22;9163;48.818;8.976;2024-02-15T10:34:21;24.30;1.00
15937;DHT22;9163;48.818;8.976;2024-02-15T10:36:49;24.90;1.00
15937;DHT22;9163;48.818;8.976;2024-02-15T10:39:17;25.00;25.50
15937;DHT22;9163;48.818;8.976;2024-02-15T10:41:47;25.40;99.90
15937;DHT22;9163;48.818;8.976;2024-02-15T10:44:18;24.50;1.00
15937;DHT22;9163;48.818;8.976;2024-02-15T10:46:46;24.10;1.00
15937;DHT22;9163;48.818;8.976;2024-02-15T10:49:18;24.00;1.00
15937;DHT22;9163;48.818;8.976;2024-02-15T10:51:50;25.20;1.00
15937;DHT22;9163;48.818;8.976;2024-02-15T10:54:27;26.40;1.00
15937;DHT22;9163;48.818;8.976;2024-02-15T10:57:03;25.80;1.80
15937;DHT22;9163;48.818;8.976;2024-02-15T10:59:35;26.30;48.20
15937;DHT22;9163;48.818;8.976;2024-02-15T11:02:14;26.40;99.90
15937;DHT22;9163;48.818;8.976;2024-02-15T11:04:48;25.50;1.00
15937;DHT22;9163;48.818;8.976;2024-02-15T11:07:17;27.30;1.00
15937;DHT22;9163;48.818;8.976;2024-02-15T11:09:45;27.30;1.00
15937;DHT22;9163;48.818;8.976;2024-02-15T11:12:12;26.70;1.00
15937;DHT22;9163;48.818;8.976;2024-02-15T11:14:44;27.30;1.00
15937;DHT22;9163;48.818;8.976;2024-02-15T11:17:11;26.60;1.00
15937;DHT22;9163;48.818;8.976;2024-02-15T11:19:58;26.20;1.00
15937;DHT22;9163;48.818;8.976;2024-02-15T11:22:26;24.80;1.00
15937;DHT22;9163;48.818;8.976;2024-02-15T11:24:53;25.50;1.00
15937;DHT22;9163;48.818;8.976;2024-02-15T11:27:27;24.10;1.00
15937;DHT22;9163;48.818;8.976;2024-02-15T11:29:57;24.20;1.00
15937;DHT22;9163;48.818;8.976;2024-02-15T11:32:42;23.30;1.00
15937;DHT22;9163;48.818;8.976;2024-02-15T11:35:16;23.30;1.00
15937;DHT22;9163;48.818;8.976;2024-02-15T11:37:57;22.70;99.90
15937;DHT22;9163;48.818;8.976;2024-02-15T11:41:03;22.00;99.90
15937;DHT22;9163;48.818;8.976;2024-02-15T11:43:51;22.00;99.90
15937;DHT22;9163;48.818;8.976;2024-02-15T11:46:26;22.20;99.90
15937;DHT22;9163;48.818;8.976;2024-02-15T11:48:57;22.70;1.00
15937;DHT22;9163;48.818;8.976;2024-02-15T11:51:35;23.10;99.90
15937;DHT22;9163;48.818;8.976;2024-02-15T11:54:09;22.00;99.90
15937;DHT22;9163;48.818;8.976;2024-02-15T11:56:51;22.50;99.90
15937;DHT22;9163;48.818;8.976;2024-02-15T11:59:20;22.90;99.90
15937;DHT22;9163;48.818;8.976;2024-02-15T12:01:59;22.50;99.90
15937;DHT22;9163;48.818;8.976;2024-02-15T12:04:44;23.00;99.90
15937;DHT22;9163;48.818;8.976;2024-02-15T12:07:29;22.30;99.90
15937;DHT22;9163;48.818;8.976;2024-02-15T12:10:16;21.80;99.90
15937;DHT22;9163;48.818;8.976;2024-02-15T12:13:00;22.40;99.90
15937;DHT22;9163;48.818;8.976;2024-02-15T12:15:57;22.70;99.90
15937;DHT22;9163;48.818;8.976;2024-02-15T12:18:44;21.90;99.90
15937;DHT22;9163;48.818;8.976;2024-02-15T12:21:16;20.80;99.90
15937;DHT22;9163;48.818;8.976;2024-02-15T12:23:44;20.10;99.90
15937;DHT22;9163;48.818;8.976;2024-02-15T12:26:11;19.30;99.90
15937;DHT22;9163;48.818;8.976;2024-02-15T12:28:41;18.20;1.00
15937;DHT22;9163;48.818;8.976;2024-02-15T12:31:09;17.60;1.00
15937;DHT22;9163;48.818;8.976;2024-02-15T12:33:39;17.20;1.00
15937;DHT22;9163;48.818;8.976;2024-02-15T12:36:08;17.40;1.00
15937;DHT22;9163;48.818;8.976;2024-02-15T12:38:36;17.10;1.00
15937;DHT22;9163;48.818;8.976;2024-02-15T12:41:16;16.90;1.00
15937;DHT22;9163;48.818;8.976;2024-02-15T12:43:44;16.80;1.00
15937;DHT22;9163;48.818;8.976;2024-02-15T12:46:11;16.90;1.00
15937;DHT22;9163;48.818;8.976;2024-02-15T12:48:38;17.10;1.00
15937;DHT22;9163;48.818;8.976;2024-02-15T12:51:14;17.50;1.00
15937;DHT22;9163;48.818;8.976;2024-02-15T12:53:42;17.00;1.00
15937;DHT22;9163;48.818;8.976;2024-02-15T12:56:09;17.10;1.00
15937;DHT22;9163;48.818;8.976;2024-02-15T12:58:36;17.50;1.00
15937;DHT22;9163;48.818;8.976;2024-02-15T13:01:05;17.70;1.00
15937;DHT22;9163;48.818;8.976;2024-02-15T13:03:32;18.10;1.00
15937;DHT22;9163;48.818;8.976;2024-02-15T13:05:59;18.60;1.00
15937;DHT22;9163;48.818;8.976;2024-02-15T13:08:28;18.90;1.00
15937;DHT22;9163;48.818;8.976;2024-02-15T13:10:55;19.00;1.00
15937;DHT22;9163;48.818;8.976;2024-02-15T13:13:22;18.90;1.00
15937;DHT22;9163;48.818;8.976;2024-02-15T13:15:49;18.90;1.00
15937;DHT22;9163;48.818;8.976;2024-02-15T13:18:18;18.30;1.00
15937;DHT22;9163;48.818;8.976;2024-02-15T13:20:45;18.30;1.00
15937;DHT22;9163;48.818;8.976;2024-02-15T13:23:15;18.70;1.00
15937;DHT22;9163;48.818;8.976;2024-02-15T13:25:50;18.90;1.00
15937;DHT22;9163;48.818;8.976;2024-02-15T13:28:18;18.70;1.00
15937;DHT22;9163;48.818;8.976;2024-02-15T13:30:45;19.10;1.00
15937;DHT22;9163;48.818;8.976;2024-02-15T13:33:12;18.80;1.00
15937;DHT22;9163;48.818;8.976;2024-02-15T13:35:40;19.40;1.00
15937;DHT22;9163;48.818;8.976;2024-02-15T13:38:07;19.70;1.00
15937;DHT22;9163;48.818;8.976;2024-02-15T13:40:40;19.70;1.00
15937;DHT22;9163;48.818;8.976;2024-02-15T13:43:09;19.70;1.00
15937;DHT22;9163;48.818;8.976;2024-02-15T13:45:39;19.50;1.00
15937;DHT22;9163;48.818;8.976;2024-02-15T13:48:07;19.00;1.00
15937;DHT22;9163;48.818;8.976;2024-02-15T13:50:35;19.30;1.00
15937;DHT22;9163;48.818;8.976;2024-02-15T13:53:03;18.90;1.00
15937;DHT22;9163;48.818;8.976;2024-02-15T13:55:31;18.50;1.00
15937;DHT22;9163;48.818;8.976;2024-02-15T13:57:59;18.80;1.00
15937;DHT22;9163;48.818;8.976;2024-02-15T14:00:28;18.50;1.00
15937;DHT22;9163;48.818;8.976;2024-02-15T14:03:00;18.40;1.00
15937;DHT22;9163;48.818;8.976;2024-02-15T14:05:28;18.40;1.00
15937;DHT22;9163;48.818;8.976;2024-02-15T14:07:57;18.30;1.00
15937;DHT22;9163;48.818;8.976;2024-02-15T14:10:25;18.30;1.00
15937;DHT22;9163;48.818;8.976;2024-02-15T14:12:53;18.40;1.00
15937;DHT22;9163;48.818;8.976;2024-02-15T14:15:24;18.30;1.00
15937;DHT22;9163;48.818;8.976;2024-02-15T14:17:53;18.40;1.00
15937;DHT22;9163;48.818;8.976;2024-02-15T14:20:22;18.20;1.00
15937;DHT22;9163;48.818;8.976;2024-02-15T14:22:50;18.30;1.00
15937;DHT22;9163;48.818;8.976;2024-02-15T14:25:22;18.20;1.00
15937;DHT22;9163;48.818;8.976;2024-02-15T14:27:50;18.00;1.00
15937;DHT22;9163;48.818;8.976;2024-02-15T14:30:18;18.00;1.00
15937;DHT22;9163;48.818;8.976;2024-02-15T14:33:04;18.20;1.00
15937;DHT22;9163;48.818;8.976;2024-02-15T14:35:36;18.50;1.00
15937;DHT22;9163;48.818;8.976;2024-02-15T14:38:05;19.10;1.00
15937;DHT22;9163;48.818;8.976;2024-02-15T14:40:34;19.20;1.00
15937;DHT22;9163;48.818;8.976;2024-02-15T14:43:02;19.60;1.00
15937;DHT22;9163;48.818;8.976;2024-02-15T14:45:30;19.40;1.00
15937;DHT22;9163;48.818;8.976;2024-02-15T14:47:58;19.60;1.00
15937;DHT22;9163;48.818;8.976;2024-02-15T14:50:26;19.80;1.00
15937;DHT22;9163;48.818;8.976;2024-02-15T14:52:54;19.70;1.00
15937;DHT22;9163;48.818;8.976;2024-02-15T14:55:22;19.50;1.00
15937;DHT22;9163;48.818;8.976;2024-02-15T14:57:49;19.20;1.00
15937;DHT22;9163;48.818;8.976;2024-02-15T15:00:17;18.90;1.00
15937;DHT22;9163;48.818;8.976;2024-02-15T15:02:47;19.20;1.00
15937;DHT22;9163;48.818;8.976;2024-02-15T15:05:15;19.20;1.00
15937;DHT22;9163;48.818;8.976;2024-02-15T15:08:01;18.60;1.00
15937;DHT22;9163;48.818;8.976;2024-02-15T15:10:46;18.30;1.00
15937;DHT22;9163;48.818;8.976;2024-02-15T15:13:32;18.20;1.00
15937;DHT22;9163;48.818;8.976;2024-02-15T15:16:00;17.90;1.00
15937;DHT22;9163;48.818;8.976;2024-02-15T15:18:28;17.60;1.00
15937;DHT22;9163;48.818;8.976;2024-02-15T15:20:57;17.30;1.00
15937;DHT22;9163;48.818;8.976;2024-02-15T15:23:26;17.10;1.00
15937;DHT22;9163;48.818;8.976;2024-02-15T15:25:56;17.10;1.00
15937;DHT22;9163;48.818;8.976;2024-02-15T15:28:23;16.90;1.00
15937;DHT22;9163;48.818;8.976;2024-02-15T15:30:50;16.70;1.00
15937;DHT22;9163;48.818;8.976;2024-02-15T15:33:17;16.70;1.00
15937;DHT22;9163;48.818;8.976;2024-02-15T15:35:46;16.60;1.00
15937;DHT22;9163;48.818;8.976;2024-02-15T15:38:13;16.70;1.00
15937;DHT22;9163;48.818;8.976;2024-02-15T15:40:42;16.50;1.00
15937;DHT22;9163;48.818;8.976;2024-02-15T15:43:09;16.40;1.00
15937;DHT22;9163;48.818;8.976;2024-02-15T15:45:38;16.60;1.00
15937;DHT22;9163;48.818;8.976;2024-02-15T15:48:06;16.50;1.00
15937;DHT22;9163;48.818;8.976;2024-02-15T15:50:33;16.30;1.00
15937;DHT22;9163;48.818;8.976;2024-02-15T15:53:02;16.20;1.00
15937;DHT22;9163;48.818;8.976;2024-02-15T15:55:29;16.10;25.90
15937;DHT22;9163;48.818;8.976;2024-02-15T15:57:58;16.10;65.40
15937;DHT22;9163;48.818;8.976;2024-02-15T16:00:26;15.90;99.90
15937;DHT22;9163;48.818;8.976;2024-02-15T16:02:54;15.80;99.90
15937;DHT22;9163;48.818;8.976;2024-02-15T16:05:22;15.70;99.90
15937;DHT22;9163;48.818;8.976;2024-02-15T16:07:50;15.70;99.90
15937;DHT22;9163;48.818;8.976;2024-02-15T16:10:18;15.60;99.90
15937;DHT22;9163;48.818;8.976;2024-02-15T16:12:50;15.50;99.90
15937;DHT22;9163;48.818;8.976;2024-02-15T16:15:19;15.50;99.90